createdAt,value
2024-03-07T00:02:20.108Z,9.30
2024-03-07T00:04:50.636Z,9.70
2024-03-07T00:07:22.122Z,8.70
2024-03-07T00:09:54.951Z,8.60
2024-03-07T00:12:25.482Z,8.80
2024-03-07T00:14:56.290Z,9.30
2024-03-07T00:17:27.014Z,8.80
2024-03-07T00:19:57.466Z,9.90
2024-03-07T00:22:30.910Z,9.40
2024-03-07T00:25:01.622Z,9.00
2024-03-07T00:27:32.207Z,9.20
2024-03-07T00:30:03.699Z,9.20
2024-03-07T00:32:37.137Z,8.30
2024-03-07T00:35:10.337Z,8.60
2024-03-07T00:37:40.977Z,8.70
2024-03-07T00:40:13.321Z,9.50
2024-03-07T00:42:44.224Z,9.10
2024-03-07T00:45:14.924Z,8.60
2024-03-07T00:47:45.583Z,8.00
2024-03-07T00:50:16.488Z,9.60
2024-03-07T00:52:47.084Z,8.20
2024-03-07T00:55:17.779Z,8.30
2024-03-07T00:57:48.235Z,8.80
2024-03-07T01:00:22.689Z,8.80
2024-03-07T01:02:54.535Z,8.40
2024-03-07T01:05:25.287Z,7.90
2024-03-07T01:07:56.955Z,8.20
2024-03-07T01:10:27.606Z,9.00
2024-03-07T01:13:02.250Z,8.50
2024-03-07T01:15:33.986Z,8.70
2024-03-07T01:18:05.060Z,9.30
2024-03-07T01:20:36.763Z,8.20
2024-03-07T01:23:08.885Z,8.60
2024-03-07T01:25:40.161Z,8.40
2024-03-07T01:28:13.488Z,7.90
2024-03-07T01:30:43.805Z,8.20
2024-03-07T01:33:14.369Z,8.50
2024-03-07T01:35:45.265Z,8.40
2024-03-07T01:38:15.938Z,8.10
2024-03-07T01:40:47.401Z,9.30
2024-03-07T01:43:18.046Z,8.00
2024-03-07T01:45:49.541Z,8.80
2024-03-07T01:48:27.745Z,9.30
2024-03-07T01:50:59.112Z,8.50
2024-03-07T01:53:31.127Z,8.90
2024-03-07T01:56:03.726Z,9.00
2024-03-07T01:58:35.315Z,8.70
2024-03-07T02:01:06.071Z,9.10
2024-03-07T02:03:37.882Z,9.20
2024-03-07T02:06:08.846Z,8.90
2024-03-07T02:08:39.263Z,8.30
2024-03-07T02:11:10.771Z,9.70
2024-03-07T02:13:41.365Z,10.10
2024-03-07T02:16:11.768Z,8.90
2024-03-07T02:18:42.510Z,9.80
2024-03-07T02:21:12.939Z,9.70
2024-03-07T02:23:43.383Z,9.60
2024-03-07T02:26:14.240Z,9.70
2024-03-07T02:28:45.136Z,9.90
2024-03-07T02:31:15.509Z,9.20
2024-03-07T02:33:46.028Z,8.90
2024-03-07T02:36:16.748Z,9.00
2024-03-07T02:38:47.257Z,9.80
2024-03-07T02:41:17.786Z,9.40
2024-03-07T02:43:48.507Z,10.00
2024-03-07T02:46:19.020Z,9.80
2024-03-07T02:48:49.685Z,9.80
2024-03-07T02:51:20.170Z,9.70
2024-03-07T02:53:51.039Z,10.10
2024-03-07T02:56:21.561Z,9.80
2024-03-07T02:58:52.459Z,10.50
2024-03-07T03:01:23.149Z,9.60
2024-03-07T03:03:53.849Z,10.30
2024-03-07T03:06:24.271Z,9.80
2024-03-07T03:08:55.377Z,10.20
2024-03-07T03:11:26.951Z,9.80
2024-03-07T03:13:57.577Z,9.70
2024-03-07T03:16:43.041Z,10.30
2024-03-07T03:19:18.248Z,9.40
2024-03-07T03:21:48.665Z,10.20
2024-03-07T03:24:19.133Z,10.00
2024-03-07T03:26:49.637Z,10.50
2024-03-07T03:29:20.431Z,10.40
2024-03-07T03:31:50.916Z,10.80
2024-03-07T03:34:22.183Z,9.70
2024-03-07T03:36:52.599Z,10.40
2024-03-07T03:39:23.063Z,10.30
2024-03-07T03:41:53.563Z,10.70
2024-03-07T03:44:24.038Z,10.10
2024-03-07T03:46:54.516Z,10.80
2024-03-07T03:49:25.028Z,10.10
2024-03-07T03:51:55.923Z,10.00
2024-03-07T03:54:26.359Z,10.90
2024-03-07T03:56:56.802Z,10.60
2024-03-07T03:59:27.220Z,10.90
2024-03-07T04:01:57.605Z,11.40
2024-03-07T04:04:28.422Z,10.70
2024-03-07T04:06:58.748Z,10.90
2024-03-07T04:09:29.688Z,10.40
2024-03-07T04:12:00.666Z,10.40
2024-03-07T04:14:34.556Z,10.70
2024-03-07T04:17:04.982Z,11.80
2024-03-07T04:19:35.355Z,12.30
2024-03-07T04:22:06.289Z,12.70
2024-03-07T04:24:36.907Z,12.50
2024-03-07T04:27:08.375Z,12.90
2024-03-07T04:29:38.844Z,13.80
2024-03-07T04:32:10.364Z,13.10
2024-03-07T04:34:40.726Z,14.50
2024-03-07T04:37:11.162Z,12.50
2024-03-07T04:39:41.663Z,12.90
2024-03-07T04:42:12.221Z,12.40
2024-03-07T04:44:42.664Z,13.90
2024-03-07T04:47:13.272Z,12.70
2024-03-07T04:49:44.791Z,13.10
2024-03-07T04:52:15.710Z,13.80
2024-03-07T04:54:46.107Z,13.70
2024-03-07T04:57:16.540Z,14.30
2024-03-07T04:59:46.942Z,13.20
2024-03-07T05:02:17.408Z,14.10
2024-03-07T05:04:50.800Z,14.70
2024-03-07T05:07:21.299Z,13.20
2024-03-07T05:09:51.635Z,14.10
2024-03-07T05:12:21.987Z,14.20
2024-03-07T05:14:52.415Z,18.40
2024-03-07T05:17:23.276Z,14.00
2024-03-07T05:19:53.697Z,14.00
2024-03-07T05:22:26.864Z,13.90
2024-03-07T05:24:58.100Z,13.70
2024-03-07T05:27:31.234Z,14.50
2024-03-07T05:30:01.680Z,12.10
2024-03-07T05:32:32.589Z,14.70
2024-03-07T05:35:03.394Z,13.30
2024-03-07T05:37:34.068Z,14.10
2024-03-07T05:40:05.365Z,14.20
2024-03-07T05:42:35.914Z,16.30
2024-03-07T05:45:09.084Z,15.50
2024-03-07T05:47:39.722Z,15.70
2024-03-07T05:50:11.911Z,16.00
2024-03-07T05:52:42.377Z,17.10
2024-03-07T05:55:13.382Z,16.30
2024-03-07T05:57:45.677Z,16.60
2024-03-07T06:00:28.779Z,16.90
2024-03-07T06:02:59.955Z,16.20
2024-03-07T06:05:30.473Z,17.10
2024-03-07T06:08:01.023Z,17.00
2024-03-07T06:10:31.453Z,17.30
2024-03-07T06:13:10.363Z,18.40
2024-03-07T06:15:44.813Z,17.40
2024-03-07T06:18:15.862Z,17.80
2024-03-07T06:20:47.176Z,18.00
2024-03-07T06:23:18.351Z,17.50
2024-03-07T06:25:51.660Z,17.70
2024-03-07T06:28:22.115Z,15.80
2024-03-07T06:30:52.693Z,18.80
2024-03-07T06:33:25.944Z,18.50
2024-03-07T06:35:58.089Z,17.90
2024-03-07T06:38:28.904Z,19.10
2024-03-07T06:40:59.578Z,20.20
2024-03-07T06:43:30.584Z,20.00
2024-03-07T06:46:01.026Z,20.40
2024-03-07T06:48:31.480Z,22.70
2024-03-07T06:51:02.230Z,21.10
2024-03-07T06:53:32.892Z,20.70
2024-03-07T06:56:03.384Z,22.10
2024-03-07T06:58:34.196Z,21.80
2024-03-07T07:01:08.396Z,19.70
2024-03-07T07:03:39.159Z,19.40
2024-03-07T07:06:09.641Z,19.80
2024-03-07T07:08:40.583Z,18.30
2024-03-07T07:11:13.484Z,20.30
2024-03-07T07:13:44.229Z,18.50
2024-03-07T07:16:14.562Z,18.10
2024-03-07T07:18:44.982Z,18.60
2024-03-07T07:21:16.980Z,17.80
2024-03-07T07:23:47.541Z,18.30
2024-03-07T07:26:17.984Z,17.20
2024-03-07T07:28:48.396Z,17.30
2024-03-07T07:31:18.693Z,17.20
2024-03-07T07:33:49.029Z,16.40
2024-03-07T07:36:20.018Z,17.10
2024-03-07T07:38:50.423Z,17.20
2024-03-07T07:41:20.840Z,16.90
2024-03-07T07:43:51.795Z,17.50
2024-03-07T07:46:22.187Z,17.20
2024-03-07T07:48:52.545Z,16.40
2024-03-07T07:51:22.988Z,18.80
2024-03-07T07:53:55.407Z,18.90
2024-03-07T07:56:29.718Z,19.30
2024-03-07T07:59:00.254Z,19.90
2024-03-07T08:01:30.688Z,19.90
2024-03-07T08:04:01.113Z,20.40
2024-03-07T08:06:32.287Z,19.20
2024-03-07T08:09:02.896Z,19.50
2024-03-07T08:11:33.775Z,19.00
2024-03-07T08:14:04.381Z,18.20
2024-03-07T08:16:34.855Z,17.90
2024-03-07T08:19:05.473Z,19.70
2024-03-07T08:21:35.872Z,17.60
2024-03-07T08:24:11.954Z,18.00
2024-03-07T08:26:45.564Z,19.00
2024-03-07T08:29:15.993Z,18.30
2024-03-07T08:31:46.344Z,18.80
2024-03-07T08:34:16.712Z,20.20
2024-03-07T08:36:48.348Z,18.10
2024-03-07T08:39:20.547Z,19.50
2024-03-07T08:41:50.986Z,19.50
2024-03-07T08:44:21.618Z,17.90
2024-03-07T08:46:52.186Z,17.90
2024-03-07T08:49:23.657Z,17.10
2024-03-07T08:51:54.083Z,19.10
2024-03-07T08:54:24.843Z,18.50
2024-03-07T08:56:55.572Z,19.80
2024-03-07T08:59:26.151Z,18.80
2024-03-07T09:01:56.659Z,18.90
2024-03-07T09:04:27.185Z,18.90
2024-03-07T09:06:57.875Z,18.70
2024-03-07T09:09:28.285Z,18.40
2024-03-07T09:11:58.834Z,18.70
2024-03-07T09:14:29.372Z,18.70
2024-03-07T09:17:00.087Z,17.20
2024-03-07T09:19:30.592Z,17.80
2024-03-07T09:22:01.429Z,17.50
2024-03-07T09:24:32.427Z,15.60
2024-03-07T09:27:03.627Z,17.00
2024-03-07T09:29:34.595Z,17.10
2024-03-07T09:32:09.212Z,15.10
2024-03-07T09:34:40.198Z,18.10
2024-03-07T09:37:11.506Z,18.20
2024-03-07T09:39:41.974Z,15.30
2024-03-07T09:42:14.279Z,19.40
2024-03-07T09:44:47.918Z,19.30
2024-03-07T09:47:19.743Z,19.80
2024-03-07T09:49:50.454Z,20.00
2024-03-07T09:52:22.142Z,19.10
2024-03-07T09:54:52.476Z,19.10
2024-03-07T09:57:24.884Z,20.10
2024-03-07T09:59:57.331Z,19.70
2024-03-07T10:02:28.901Z,19.50
2024-03-07T10:05:00.887Z,20.70
2024-03-07T10:07:32.632Z,19.80
2024-03-07T10:10:11.041Z,19.70
2024-03-07T10:12:42.066Z,19.80
2024-03-07T10:15:14.980Z,19.90
2024-03-07T10:17:47.799Z,22.00
2024-03-07T10:20:24.126Z,19.80
2024-03-07T10:22:55.520Z,20.10
2024-03-07T10:25:28.498Z,26.70
2024-03-07T10:28:00.375Z,21.20
2024-03-07T10:30:30.948Z,20.60
2024-03-07T10:33:03.080Z,18.30
2024-03-07T10:35:33.956Z,17.40
2024-03-07T10:38:08.475Z,19.20
2024-03-07T10:40:42.453Z,19.40
2024-03-07T10:43:16.113Z,19.80
2024-03-07T10:45:49.067Z,18.20
2024-03-07T10:48:25.344Z,19.00
2024-03-07T10:51:07.269Z,20.50
2024-03-07T10:53:43.925Z,17.80
2024-03-07T10:56:26.681Z,18.80
2024-03-07T10:59:10.445Z,17.00
2024-03-07T11:01:51.409Z,17.60
2024-03-07T11:04:23.193Z,16.90
2024-03-07T11:06:55.080Z,16.30
2024-03-07T11:09:30.057Z,15.40
2024-03-07T11:12:04.686Z,15.50
2024-03-07T11:14:38.284Z,16.60
2024-03-07T11:17:10.691Z,16.20
2024-03-07T11:19:41.183Z,14.80
2024-03-07T11:22:16.960Z,16.10
2024-03-07T11:25:02.096Z,16.50
2024-03-07T11:27:34.153Z,16.40
2024-03-07T11:30:12.849Z,15.40
2024-03-07T11:32:45.883Z,14.30
2024-03-07T11:35:16.869Z,15.70
2024-03-07T11:37:50.345Z,16.50
2024-03-07T11:40:47.968Z,16.30
2024-03-07T11:45:53.386Z,14.70
2024-03-07T11:48:25.168Z,15.60
2024-03-07T11:50:57.525Z,14.80
2024-03-07T11:53:28.912Z,16.70
2024-03-07T11:55:59.396Z,15.30
2024-03-07T11:58:33.159Z,14.20
2024-03-07T12:01:06.799Z,14.50
2024-03-07T12:03:37.251Z,14.60
2024-03-07T12:06:11.029Z,15.50
2024-03-07T12:08:43.279Z,14.70
2024-03-07T12:11:17.006Z,15.20
2024-03-07T12:13:48.729Z,15.40
2024-03-07T12:16:19.303Z,13.90
2024-03-07T12:18:50.293Z,15.00
2024-03-07T12:21:22.172Z,14.60
2024-03-07T12:23:52.953Z,14.80
2024-03-07T12:26:26.722Z,14.90
2024-03-07T12:28:58.526Z,14.90
2024-03-07T12:31:28.944Z,15.30
2024-03-07T12:33:59.714Z,13.90
2024-03-07T12:36:35.756Z,13.80
2024-03-07T12:39:20.408Z,15.00
2024-03-07T12:41:53.962Z,14.80
2024-03-07T12:44:24.828Z,14.30
2024-03-07T12:46:57.076Z,14.60
2024-03-07T12:49:28.434Z,14.60
2024-03-07T12:52:00.386Z,13.40
2024-03-07T12:54:31.110Z,13.70
2024-03-07T12:57:01.750Z,13.50
2024-03-07T12:59:32.393Z,13.60
2024-03-07T13:02:03.947Z,13.80
2024-03-07T13:04:34.594Z,13.40
2024-03-07T13:07:05.469Z,14.60
2024-03-07T13:09:36.367Z,14.20
2024-03-07T13:12:10.723Z,14.40
2024-03-07T13:14:41.522Z,14.50
2024-03-07T13:17:15.349Z,14.00
2024-03-07T13:19:50.980Z,14.80
2024-03-07T13:22:21.392Z,14.50
2024-03-07T13:24:51.849Z,14.80
2024-03-07T13:27:29.215Z,14.40
2024-03-07T13:29:59.822Z,14.10
2024-03-07T13:32:30.610Z,14.00
2024-03-07T13:35:02.629Z,13.80
2024-03-07T13:37:35.606Z,14.40
2024-03-07T13:40:24.176Z,15.10
2024-03-07T13:42:57.103Z,13.90
2024-03-07T13:45:29.623Z,14.30
2024-03-07T13:48:01.145Z,14.10
2024-03-07T13:50:47.280Z,12.60
2024-03-07T13:53:34.413Z,14.00
2024-03-07T13:56:31.458Z,14.40
2024-03-07T13:59:32.915Z,13.70
2024-03-07T14:02:24.765Z,12.50
2024-03-07T14:05:26.299Z,13.20
2024-03-07T14:08:24.898Z,13.40
2024-03-07T14:11:43.169Z,13.20
2024-03-07T14:14:38.345Z,14.40
2024-03-07T14:17:59.544Z,13.50
2024-03-07T14:21:18.254Z,12.60
2024-03-07T14:24:18.488Z,13.10
2024-03-07T14:27:20.485Z,12.60
2024-03-07T14:30:00.961Z,12.20
2024-03-07T14:32:32.305Z,12.30
2024-03-07T14:35:12.150Z,12.00
2024-03-07T14:37:52.009Z,11.80
2024-03-07T14:40:25.926Z,12.80
2024-03-07T14:43:00.605Z,11.80
2024-03-07T14:45:36.023Z,12.10
2024-03-07T14:48:10.957Z,12.50
2024-03-07T14:50:44.116Z,11.60
2024-03-07T14:53:18.025Z,11.10
2024-03-07T14:55:49.032Z,11.60
2024-03-07T14:58:21.162Z,11.90
2024-03-07T15:00:57.916Z,11.20
2024-03-07T15:03:30.924Z,12.20
2024-03-07T15:06:03.969Z,12.20
2024-03-07T15:08:34.844Z,11.60
2024-03-07T15:11:14.922Z,12.60
2024-03-07T15:13:46.992Z,11.90
2024-03-07T15:16:29.209Z,12.10
2024-03-07T15:19:04.026Z,12.00
2024-03-07T15:21:34.510Z,12.80
2024-03-07T15:24:06.158Z,11.50
2024-03-07T15:26:36.920Z,11.80
2024-03-07T15:29:08.207Z,12.60
2024-03-07T15:31:38.567Z,12.70
2024-03-07T15:34:10.689Z,13.70
2024-03-07T15:36:42.298Z,12.80
2024-03-07T15:39:21.452Z,12.70
2024-03-07T15:41:52.209Z,16.20
2024-03-07T15:44:22.659Z,12.00
2024-03-07T15:46:53.047Z,12.10
2024-03-07T15:49:23.392Z,12.60
2024-03-07T15:51:53.905Z,11.80
2024-03-07T15:54:25.031Z,11.50
2024-03-07T15:56:55.438Z,12.70
2024-03-07T15:59:25.822Z,12.80
2024-03-07T16:01:56.143Z,13.30
2024-03-07T16:04:26.473Z,13.10
2024-03-07T16:06:56.991Z,12.10
2024-03-07T16:09:27.540Z,13.20
2024-03-07T16:11:58.775Z,12.40
2024-03-07T16:14:29.363Z,12.00
2024-03-07T16:16:59.759Z,11.20
2024-03-07T16:19:30.192Z,12.00
2024-03-07T16:22:03.442Z,12.10
2024-03-07T16:24:37.593Z,11.90
2024-03-07T16:27:08.608Z,11.50
2024-03-07T16:29:39.536Z,11.00
2024-03-07T16:32:12.956Z,10.80
2024-03-07T16:34:44.092Z,11.50
2024-03-07T16:37:15.062Z,11.40
2024-03-07T16:39:45.902Z,11.10
2024-03-07T16:42:16.767Z,11.50
2024-03-07T16:44:47.099Z,12.30
2024-03-07T16:47:17.698Z,13.20
2024-03-07T16:49:50.398Z,12.70
2024-03-07T16:52:20.879Z,11.70
2024-03-07T16:54:51.745Z,10.00
2024-03-07T16:57:22.144Z,9.90
2024-03-07T16:59:52.597Z,13.00
2024-03-07T17:02:27.296Z,11.20
2024-03-07T17:04:59.230Z,11.10
2024-03-07T17:07:31.618Z,11.30
2024-03-07T17:10:02.432Z,14.30
2024-03-07T17:12:32.847Z,11.60
2024-03-07T17:15:03.340Z,11.50
2024-03-07T17:17:40.312Z,12.30
2024-03-07T17:20:12.475Z,13.20
2024-03-07T17:22:43.140Z,11.00
2024-03-07T17:25:17.437Z,12.20
2024-03-07T17:27:50.772Z,10.10
2024-03-07T17:30:22.906Z,10.80
2024-03-07T17:32:53.410Z,10.30
2024-03-07T17:35:23.939Z,10.60
2024-03-07T17:37:54.780Z,9.90
2024-03-07T17:40:27.836Z,10.40
2024-03-07T17:43:00.351Z,11.30
2024-03-07T17:45:36.424Z,11.30
2024-03-07T17:48:11.642Z,11.70
2024-03-07T17:50:43.535Z,11.70
2024-03-07T17:53:15.096Z,10.30
2024-03-07T17:55:46.371Z,10.70
2024-03-07T17:58:21.110Z,10.50
2024-03-07T18:00:51.943Z,10.60
2024-03-07T18:03:23.352Z,11.40
2024-03-07T18:05:54.628Z,11.30
2024-03-07T18:08:35.935Z,12.70
2024-03-07T18:13:47.749Z,10.60
2024-03-07T18:16:18.716Z,10.30
2024-03-07T18:18:54.285Z,11.20
2024-03-07T18:21:24.728Z,11.30
2024-03-07T18:23:57.537Z,10.70
2024-03-07T18:26:28.068Z,14.70
2024-03-07T18:28:58.791Z,13.10
2024-03-07T18:31:31.297Z,11.30
2024-03-07T18:34:02.960Z,13.50
2024-03-07T18:36:37.252Z,12.00
2024-03-07T18:39:24.055Z,11.10
2024-03-07T18:41:58.178Z,11.40
2024-03-07T18:44:31.631Z,12.80
2024-03-07T18:47:06.946Z,12.00
2024-03-07T18:49:39.694Z,10.70
2024-03-07T18:52:12.261Z,10.60
2024-03-07T18:54:43.104Z,12.00
2024-03-07T18:57:13.569Z,10.80
2024-03-07T18:59:46.506Z,11.20
2024-03-07T19:02:16.999Z,10.70
2024-03-07T19:04:47.309Z,10.60
2024-03-07T19:07:17.705Z,10.80
2024-03-07T19:09:48.100Z,11.20
2024-03-07T19:12:18.555Z,11.20
2024-03-07T19:15:00.869Z,10.00
2024-03-07T19:17:31.823Z,11.00
2024-03-07T19:20:12.333Z,10.10
2024-03-07T19:22:42.619Z,11.10
2024-03-07T19:25:18.529Z,10.20
2024-03-07T19:27:50.427Z,10.50
2024-03-07T19:30:24.594Z,10.10
2024-03-07T19:32:56.464Z,10.30
2024-03-07T19:35:27.000Z,10.60
2024-03-07T19:37:57.517Z,10.50
2024-03-07T19:40:27.936Z,11.50
2024-03-07T19:42:58.344Z,10.40
2024-03-07T19:45:28.740Z,12.40
2024-03-07T19:48:00.871Z,12.50
2024-03-07T19:50:32.756Z,11.70
2024-03-07T19:53:03.191Z,11.60
2024-03-07T19:55:33.481Z,11.70
2024-03-07T19:58:03.985Z,11.10
2024-03-07T20:00:34.324Z,11.50
2024-03-07T20:03:08.127Z,13.70
2024-03-07T20:05:38.674Z,15.50
2024-03-07T20:08:15.497Z,19.60
2024-03-07T20:10:49.209Z,17.50
2024-03-07T20:13:20.730Z,15.20
2024-03-07T20:15:51.400Z,12.80
2024-03-07T20:18:25.200Z,14.30
2024-03-07T20:20:56.426Z,13.50
2024-03-07T20:23:28.690Z,13.30
2024-03-07T20:26:00.059Z,13.50
2024-03-07T20:28:30.424Z,13.90
2024-03-07T20:31:01.710Z,14.00
2024-03-07T20:33:32.206Z,13.00
2024-03-07T20:36:03.991Z,13.70
2024-03-07T20:38:36.030Z,13.20
2024-03-07T20:41:07.022Z,13.60
2024-03-07T20:43:38.043Z,14.30
2024-03-07T20:46:08.591Z,14.10
2024-03-07T20:48:39.103Z,12.40
2024-03-07T20:51:11.665Z,11.40
2024-03-07T20:53:48.020Z,11.30
2024-03-07T20:56:18.630Z,11.30
2024-03-07T20:58:49.256Z,11.40
2024-03-07T21:01:21.492Z,11.30
2024-03-07T21:03:55.509Z,11.40
2024-03-07T21:06:28.507Z,10.70
2024-03-07T21:08:58.945Z,10.30
2024-03-07T21:11:30.702Z,11.10
2024-03-07T21:14:01.375Z,11.00
2024-03-07T21:16:31.735Z,10.10
2024-03-07T21:19:02.451Z,11.00
2024-03-07T21:21:34.421Z,10.50
2024-03-07T21:24:05.899Z,11.30
2024-03-07T21:26:36.361Z,10.70
2024-03-07T21:29:06.694Z,10.00
2024-03-07T21:31:36.987Z,10.60
2024-03-07T21:34:08.054Z,13.80
2024-03-07T21:36:40.768Z,11.10
2024-03-07T21:39:11.372Z,11.00
2024-03-07T21:41:44.308Z,11.60
2024-03-07T21:44:15.136Z,11.40
2024-03-07T21:46:45.740Z,11.10
2024-03-07T21:49:16.256Z,10.50
2024-03-07T21:51:51.555Z,11.10
2024-03-07T21:54:23.505Z,10.40
2024-03-07T21:56:53.976Z,10.10
2024-03-07T21:59:24.501Z,10.00
2024-03-07T22:01:55.072Z,11.10
2024-03-07T22:04:25.667Z,11.90
2024-03-07T22:06:56.088Z,12.00
2024-03-07T22:09:27.640Z,10.70
2024-03-07T22:11:59.107Z,12.30
2024-03-07T22:14:30.746Z,12.70
2024-03-07T22:17:05.907Z,11.50
2024-03-07T22:19:38.807Z,12.00
2024-03-07T22:22:09.139Z,11.00
2024-03-07T22:24:39.771Z,10.40
2024-03-07T22:27:11.234Z,12.10
2024-03-07T22:29:42.148Z,11.20
2024-03-07T22:32:12.765Z,11.70
2024-03-07T22:34:43.784Z,11.90
2024-03-07T22:37:14.915Z,12.30
2024-03-07T22:39:48.788Z,10.30
2024-03-07T22:42:19.183Z,11.20
2024-03-07T22:44:49.541Z,11.80
2024-03-07T22:47:22.739Z,12.10
2024-03-07T22:49:56.246Z,12.90
2024-03-07T22:52:30.322Z,12.20
2024-03-07T22:55:00.746Z,12.00
2024-03-07T22:57:31.167Z,11.60
2024-03-07T23:00:01.735Z,11.50
2024-03-07T23:02:32.654Z,12.00
2024-03-07T23:05:05.419Z,12.30
2024-03-07T23:07:35.763Z,12.10
2024-03-07T23:10:07.678Z,12.60
2024-03-07T23:12:39.091Z,11.80
2024-03-07T23:15:11.594Z,12.80
2024-03-07T23:17:45.467Z,12.10
2024-03-07T23:20:20.988Z,11.70
2024-03-07T23:22:53.173Z,12.00
2024-03-07T23:25:24.643Z,12.70
2024-03-07T23:27:56.519Z,13.30
2024-03-07T23:30:28.460Z,12.20
2024-03-07T23:33:00.173Z,13.00
2024-03-07T23:35:30.786Z,13.40
2024-03-07T23:38:01.492Z,13.30
2024-03-07T23:40:31.873Z,13.60
2024-03-07T23:43:02.376Z,13.00
2024-03-07T23:45:32.855Z,13.70
2024-03-07T23:48:04.934Z,12.60
2024-03-07T23:50:35.548Z,12.40
2024-03-07T23:53:07.855Z,12.10
2024-03-07T23:55:38.561Z,11.70
2024-03-07T23:58:08.927Z,12.50
